Time;durP1;ratioP1;P1;durP2;ratioP2;P2;SDS_P1;SDS_P2;PMS_P1;PMS_P2;Temp;Humidity;BMP_temperature;BMP_pressure;BME280_temperature;BME280_humidity;BME280_pressure;Samples;Min_cycle;Max_cycle;Signal;HPM_P1;HPM_P2
2021/12/20 00:00:12;;;;;;;10.90;2.80;;;3.60;99.90;;;4.25;100.00;-19871.63;5074515;28;20277;-70
2021/12/20 00:02:42;;;;;;;6.93;2.87;;;3.60;99.90;;;4.08;100.00;-19865.81;5074749;28;20203;-69
2021/12/20 00:05:12;;;;;;;7.60;2.30;;;3.50;99.90;;;3.83;100.00;-19857.09;5074642;28;20217;-70
2021/12/20 00:07:40;;;;;;;10.80;2.80;;;3.40;99.90;;;3.76;100.00;-19854.88;5094225;28;20284;-70
2021/12/20 00:10:08;;;;;;;12.03;2.83;;;3.30;99.90;;;3.98;100.00;-19862.41;5094649;28;20631;-70
2021/12/20 00:12:38;;;;;;;10.27;2.70;;;3.30;99.90;;;3.98;100.00;-19862.22;5094882;28;20438;-70
2021/12/20 00:15:07;;;;;;;5.23;1.93;;;3.30;99.90;;;3.77;100.00;-19855.22;5094310;28;20724;-69
2021/12/20 00:17:35;;;;;;;9.03;2.30;;;3.20;99.90;;;3.47;100.00;-19845.13;5094658;28;20289;-70
2021/12/20 00:20:05;;;;;;;9.90;2.63;;;3.10;99.90;;;3.56;100.00;-19848.22;5094623;28;20214;-71
2021/12/20 00:22:34;;;;;;;8.77;2.53;;;3.00;99.90;;;3.42;100.00;-19843.25;5094171;28;20197;-72
2021/12/20 00:25:03;;;;;;;9.13;2.47;;;2.90;99.90;;;3.67;100.00;-19851.97;5094526;28;20223;-70
2021/12/20 00:27:31;;;;;;;6.30;1.87;;;2.90;99.90;;;3.57;100.00;-19848.38;5094633;28;20202;-70
2021/12/20 00:30:00;;;;;;;5.83;2.00;;;2.90;99.90;;;3.41;100.00;-19843.09;5094130;28;20664;-70
2021/12/20 00:32:28;;;;;;;6.27;2.17;;;2.90;99.90;;;3.34;100.00;-19840.50;5094533;28;20225;-70
2021/12/20 00:34:57;;;;;;;9.27;2.23;;;2.80;99.90;;;3.53;100.00;-19847.19;5093959;28;20645;-70
2021/12/20 00:40:21;;;;;;;8.07;1.80;;;2.80;99.90;;;3.54;100.00;-19847.53;5094058;28;20621;-70
2021/12/20 00:42:52;;;;;;;12.43;2.30;;;2.90;99.90;;;3.29;100.00;-19838.97;5094196;28;20241;-70
2021/12/20 00:45:23;;;;;;;5.40;2.03;;;2.80;99.90;;;3.39;100.00;-19842.41;5093814;28;20559;-70
2021/12/20 00:47:51;;;;;;;7.90;2.30;;;2.70;99.90;;;3.09;100.00;-19832.13;5094292;28;20216;-69
2021/12/20 00:50:21;;;;;;;9.43;2.70;;;2.70;99.90;;;3.01;100.00;-19829.41;5094219;28;20284;-71
2021/12/20 00:52:51;;;;;;;8.07;2.10;;;2.50;99.90;;;3.03;100.00;-19830.09;5093997;28;20280;-70
2021/12/20 00:55:20;;;;;;;4.73;1.97;;;2.50;99.90;;;2.94;100.00;-19826.84;5094063;28;20236;-70
2021/12/20 00:57:51;;;;;;;8.60;1.90;;;2.40;99.90;;;2.89;100.00;-19825.13;5093670;28;20208;-70
2021/12/20 01:00:25;;;;;;;8.03;2.17;;;2.40;99.90;;;2.76;100.00;-19820.69;5093646;28;20205;-70
2021/12/20 01:02:54;;;;;;;9.10;2.23;;;2.30;99.90;;;2.64;100.00;-19816.59;5093656;28;20234;-71
2021/12/20 01:05:26;;;;;;;5.00;1.97;;;2.20;99.90;;;2.59;100.00;-19815.03;5093412;28;20211;-70
2021/12/20 01:07:55;;;;;;;7.80;2.10;;;2.10;99.90;;;2.88;100.00;-19824.97;5093306;28;20338;-70
2021/12/20 01:10:24;;;;;;;10.97;2.67;;;2.20;99.90;;;2.76;100.00;-19820.69;5093421;28;20682;-70
2021/12/20 01:12:55;;;;;;;9.23;2.57;;;2.10;99.90;;;2.56;100.00;-19813.84;5093250;28;20236;-71
2021/12/20 01:15:30;;;;;;;5.77;2.10;;;2.10;99.90;;;2.49;100.00;-19811.78;5093325;28;20176;-70
2021/12/20 01:17:59;;;;;;;8.97;2.70;;;2.00;99.90;;;2.74;100.00;-19820.00;5093395;28;20279;-69
2021/12/20 01:20:28;;;;;;;5.93;2.77;;;2.00;99.90;;;2.81;100.00;-19822.41;5093486;28;20244;-69
2021/12/20 01:22:57;;;;;;;4.87;1.80;;;2.10;99.90;;;3.18;100.00;-19835.22;5093017;28;20744;-69
2021/12/20 01:25:25;;;;;;;9.57;2.20;;;2.20;99.90;;;3.23;100.00;-19836.75;5079545;28;20626;-70
2021/12/20 01:27:54;;;;;;;6.60;2.00;;;2.40;99.90;;;2.86;100.00;-19824.09;5072459;28;20201;-70
2021/12/20 01:30:27;;;;;;;5.90;1.83;;;2.30;99.90;;;2.68;100.00;-19818.13;5072805;28;20202;-69
2021/12/20 01:32:56;;;;;;;3.07;1.50;;;2.20;99.90;;;2.67;100.00;-19817.78;5072887;28;20284;-69
2021/12/20 01:35:27;;;;;;;5.63;1.80;;;2.20;99.90;;;2.57;100.00;-19814.38;5072573;28;20190;-70
2021/12/20 01:37:57;;;;;;;5.57;1.93;;;2.10;99.90;;;2.57;100.00;-19814.38;5072597;28;20669;-63
2021/12/20 01:40:25;;;;;;;6.57;2.13;;;2.00;99.90;;;2.37;100.00;-19807.69;5072811;28;20639;-63
2021/12/20 01:42:57;;;;;;;3.47;1.70;;;1.90;99.90;;;2.56;100.00;-19813.84;5072759;28;20311;-62
2021/12/20 01:45:29;;;;;;;6.87;1.77;;;1.90;99.90;;;2.56;100.00;-19814.00;5072349;28;20304;-63
2021/12/20 01:48:06;;;;;;;7.00;2.70;;;1.90;99.90;;;2.48;100.00;-19811.28;5073035;28;20580;-63
2021/12/20 01:51:00;;;;;;;6.20;2.10;;;1.90;99.90;;;2.45;100.00;-19810.44;5072739;28;20267;-62
2021/12/20 01:53:29;;;;;;;7.13;2.23;;;1.80;99.90;;;2.46;100.00;-19810.78;5072561;28;20185;-61
2021/12/20 01:55:59;;;;;;;7.60;2.10;;;1.80;99.90;;;2.35;100.00;-19806.84;5072527;28;20304;-61
2021/12/20 01:58:29;;;;;;;7.50;2.27;;;1.80;99.90;;;2.17;100.00;-19800.84;5077673;28;20288;-63
2021/12/20 02:04:01;;;;;;;4.73;1.93;;;1.80;99.90;;;2.25;100.00;-19803.41;5089841;28;20608;-63
2021/12/20 02:06:35;;;;;;;8.90;2.40;;;1.70;99.90;;;2.33;100.00;-19806.31;5069755;28;20220;-63
2021/12/20 02:09:07;;;;;;;7.27;2.37;;;1.60;99.90;;;2.28;100.00;-19804.44;5069510;28;20221;-62
2021/12/20 02:11:37;;;;;;;8.53;2.10;;;1.70;99.90;;;2.16;100.00;-19800.34;5069684;28;20213;-64
2021/12/20 02:14:06;;;;;;;6.30;1.90;;;1.70;99.90;;;2.17;100.00;-19800.69;5069330;28;20208;-63
2021/12/20 02:16:36;;;;;;;5.97;2.70;;;1.60;99.90;;;2.23;100.00;-19802.91;5069128;28;20637;-63
2021/12/20 02:19:09;;;;;;;7.37;2.47;;;1.60;99.90;;;2.26;100.00;-19803.75;5069549;28;20295;-62
2021/12/20 02:21:39;;;;;;;5.63;2.50;;;1.60;99.90;;;2.21;100.00;-19802.06;5069008;28;20200;-62
2021/12/20 02:24:09;;;;;;;6.93;2.63;;;1.60;99.90;;;2.36;100.00;-19807.34;5069272;28;20288;-63
2021/12/20 02:26:37;;;;;;;6.30;2.13;;;1.60;99.90;;;2.24;100.00;-19803.06;5069224;28;20236;-63
2021/12/20 02:29:08;;;;;;;6.43;2.17;;;1.70;99.90;;;2.26;100.00;-19803.75;5068791;28;20291;-63
2021/12/20 02:37:21;;;;;;;6.53;2.37;;;1.60;99.90;;;2.12;100.00;-19799.16;5089323;28;20273;-63
2021/12/20 02:39:49;;;;;;;6.30;2.20;;;1.60;99.90;;;2.24;100.00;-19803.06;5089697;28;20689;-62
2021/12/20 02:42:21;;;;;;;5.03;2.13;;;1.60;99.90;;;2.14;100.00;-19799.81;5088676;28;20330;-63
2021/12/20 02:45:06;;;;;;;5.83;2.00;;;1.50;99.90;;;2.02;100.00;-19795.72;5069074;28;20220;-62
2021/12/20 02:47:38;;;;;;;4.13;2.07;;;1.50;99.90;;;2.16;100.00;-19800.50;5069110;28;20236;-63
2021/12/20 02:50:07;;;;;;;3.63;1.83;;;1.50;99.90;;;2.09;100.00;-19797.94;5068470;28;20205;-64
2021/12/20 02:52:37;;;;;;;4.00;2.10;;;1.50;99.90;;;2.03;100.00;-19795.91;5068782;28;20292;-63
2021/12/20 02:55:07;;;;;;;5.77;2.20;;;1.50;99.90;;;2.11;100.00;-19798.63;5060533;28;20227;-64
2021/12/20 02:57:37;;;;;;;5.47;1.93;;;1.40;99.90;;;2.13;100.00;-19799.47;5048630;28;20212;-63
2021/12/20 03:00:07;;;;;;;6.20;2.13;;;1.50;99.90;;;2.02;100.00;-19795.72;5048460;28;20194;-63
2021/12/20 03:02:35;;;;;;;6.03;1.87;;;1.40;99.90;;;2.24;100.00;-19803.06;5048455;28;20230;-63
2021/12/20 03:05:05;;;;;;;7.33;2.33;;;1.40;99.90;;;2.21;100.00;-19802.22;5045703;28;20230;-63
2021/12/20 03:07:41;;;;;;;10.43;2.53;;;1.60;99.90;;;2.21;100.00;-19802.22;5028560;28;20246;-63
2021/12/20 03:10:14;;;;;;;7.20;2.90;;;1.50;99.90;;;2.27;100.00;-19804.28;5042575;28;20216;-64
2021/12/20 03:12:42;;;;;;;6.23;2.30;;;1.60;99.90;;;2.33;100.00;-19806.16;5048453;28;20182;-62
2021/12/20 03:15:15;;;;;;;7.27;2.33;;;1.50;99.90;;;2.16;100.00;-19800.34;5036119;28;20206;-62
2021/12/20 03:17:43;;;;;;;6.53;2.53;;;1.50;99.90;;;2.17;100.00;-19800.84;5034799;28;20240;-64
2021/12/20 03:20:14;;;;;;;5.13;2.20;;;1.50;99.90;;;1.91;100.00;-19791.78;5035343;28;20198;-63
2021/12/20 03:22:42;;;;;;;5.57;2.57;;;1.50;99.90;;;1.94;100.00;-19793.00;5034900;28;20300;-64
2021/12/20 03:25:12;;;;;;;10.67;2.70;;;1.40;99.90;;;1.90;100.00;-19791.63;5035200;28;20210;-62
2021/12/20 03:27:40;;;;;;;6.93;2.23;;;1.40;99.90;;;1.79;100.00;-19787.69;5034758;28;20669;-62
2021/12/20 03:30:12;;;;;;;7.53;2.20;;;1.30;99.90;;;1.75;100.00;-19786.31;5054242;28;20205;-63
2021/12/20 03:32:42;;;;;;;6.67;2.20;;;1.30;99.90;;;1.90;100.00;-19791.63;5054623;28;20185;-61
2021/12/20 03:35:11;;;;;;;7.13;2.30;;;1.30;99.90;;;1.80;100.00;-19788.19;5054955;28;20201;-63
2021/12/20 03:37:43;;;;;;;5.70;2.20;;;1.30;99.90;;;1.81;100.00;-19788.38;5054514;28;20182;-62
2021/12/20 03:40:13;;;;;;;6.23;2.00;;;1.20;99.90;;;1.96;100.00;-19793.50;5054694;28;20720;-63
2021/12/20 03:42:44;;;;;;;6.90;2.20;;;1.30;99.90;;;1.86;100.00;-19790.25;5054534;28;20186;-63
2021/12/20 03:45:14;;;;;;;7.73;2.27;;;1.20;99.90;;;1.78;100.00;-19787.53;5054523;28;20181;-63
2021/12/20 03:47:43;;;;;;;11.30;2.17;;;1.30;99.90;;;1.71;100.00;-19785.13;5054552;28;20235;-62
2021/12/20 03:50:13;;;;;;;6.97;2.50;;;1.20;99.90;;;1.76;100.00;-19786.66;5054620;28;20211;-64
2021/12/20 03:52:42;;;;;;;6.97;2.20;;;1.20;99.90;;;1.61;100.00;-19781.53;5034584;28;20885;-62
2021/12/20 03:55:15;;;;;;;7.93;2.60;;;1.20;99.90;;;1.56;100.00;-19780.00;5034219;28;20679;-64
2021/12/20 03:57:43;;;;;;;4.00;1.90;;;1.10;99.90;;;1.51;100.00;-19778.28;5033799;28;20281;-63
2021/12/20 04:00:16;;;;;;;8.10;2.40;;;1.10;99.90;;;1.64;100.00;-19782.72;5034302;28;20308;-62
2021/12/20 04:02:46;;;;;;;5.60;2.73;;;1.10;99.90;;;1.48;100.00;-19777.25;5033975;28;20324;-62
2021/12/20 04:05:15;;;;;;;5.53;2.00;;;1.00;99.90;;;1.48;100.00;-19777.25;5030185;28;20199;-63
2021/12/20 04:07:43;;;;;;;10.53;2.57;;;1.00;99.90;;;1.48;100.00;-19777.09;5014277;28;20202;-62
2021/12/20 04:10:13;;;;;;;5.77;2.17;;;1.00;99.90;;;1.57;100.00;-19780.34;5028714;28;20289;-62
2021/12/20 04:12:41;;;;;;;4.47;2.10;;;1.00;99.90;;;1.48;100.00;-19777.09;5034113;28;20206;-63
2021/12/20 04:15:10;;;;;;;7.63;2.17;;;1.00;99.90;;;1.68;100.00;-19784.09;5033909;28;20214;-63
2021/12/20 04:17:38;;;;;;;4.70;2.00;;;1.00;99.90;;;1.52;100.00;-19778.47;5034094;28;20305;-63
2021/12/20 04:20:08;;;;;;;6.83;2.03;;;1.00;99.90;;;1.58;100.00;-19780.69;5034015;28;20245;-63
2021/12/20 04:22:36;;;;;;;6.07;2.03;;;1.00;99.90;;;1.52;100.00;-19778.63;5033798;28;20204;-63
2021/12/20 04:25:06;;;;;;;4.10;1.77;;;1.00;99.90;;;1.76;100.00;-19786.66;5041810;28;20231;-63
2021/12/20 04:27:36;;;;;;;4.00;1.93;;;1.00;99.90;;;1.54;100.00;-19779.31;5053480;28;20289;-63
2021/12/20 04:30:09;;;;;;;6.90;2.23;;;1.10;99.90;;;2.00;100.00;-19795.03;5053876;28;20203;-65
2021/12/20 04:32:39;;;;;;;5.70;2.10;;;1.10;99.90;;;1.81;100.00;-19788.53;5053937;28;20190;-63
2021/12/20 04:35:09;;;;;;;7.63;2.00;;;1.10;99.90;;;1.65;100.00;-19783.06;5053685;28;20224;-63
2021/12/20 04:37:40;;;;;;;4.33;2.23;;;1.20;99.90;;;1.58;100.00;-19780.69;5053372;28;20634;-63
2021/12/20 04:40:14;;;;;;;6.30;2.40;;;1.10;99.90;;;1.50;100.00;-19777.94;5053733;28;20228;-64
2021/12/20 04:42:44;;;;;;;7.70;2.03;;;1.00;99.90;;;1.42;100.00;-19775.03;5053607;28;20185;-63
2021/12/20 04:45:12;;;;;;;5.20;2.20;;;1.00;99.90;;;1.38;100.00;-19773.84;5053591;28;20287;-62
2021/12/20 04:47:41;;;;;;;6.80;2.50;;;0.90;99.90;;;1.44;100.00;-19775.88;5044299;28;20198;-62
2021/12/20 04:50:10;;;;;;;7.70;2.70;;;0.90;99.90;;;1.49;100.00;-19777.59;5033506;28;20681;-62
2021/12/20 04:52:40;;;;;;;5.90;2.50;;;0.90;99.90;;;1.38;100.00;-19773.66;5033402;28;20288;-62
2021/12/20 04:55:10;;;;;;;9.20;3.23;;;0.90;99.90;;;1.47;100.00;-19776.91;5033093;28;20198;-61
2021/12/20 04:57:39;;;;;;;6.07;2.50;;;0.80;99.90;;;1.30;100.00;-19771.09;5033129;28;20554;-62
2021/12/20 05:00:14;;;;;;;7.33;2.70;;;0.80;99.90;;;1.39;100.00;-19774.00;5033317;28;20244;-61
2021/12/20 05:02:42;;;;;;;6.50;2.10;;;0.80;99.90;;;1.44;100.00;-19775.72;5033001;28;20320;-63
2021/12/20 05:05:11;;;;;;;7.63;2.60;;;0.90;99.90;;;1.27;100.00;-19769.91;5029510;28;20254;-63
2021/12/20 05:07:40;;;;;;;8.37;2.60;;;0.80;99.90;;;1.22;100.00;-19768.38;5012785;28;20310;-62
2021/12/20 05:10:13;;;;;;;6.47;3.30;;;0.80;99.90;;;1.39;100.00;-19774.19;5026888;28;20301;-63
2021/12/20 05:12:42;;;;;;;7.37;2.80;;;0.80;99.90;;;1.22;100.00;-19768.53;5032981;28;20193;-63
2021/12/20 05:15:11;;;;;;;6.77;3.20;;;0.70;99.90;;;1.17;100.00;-19766.84;5032744;28;20289;-62
2021/12/20 05:17:39;;;;;;;6.57;3.10;;;0.70;99.90;;;1.12;100.00;-19765.13;5032934;28;20644;-62
2021/12/20 05:20:09;;;;;;;7.20;3.03;;;0.70;99.90;;;1.17;100.00;-19766.66;5032822;28;20202;-65
2021/12/20 05:22:37;;;;;;;7.53;3.40;;;0.60;99.90;;;1.10;100.00;-19764.25;5051875;28;20537;-65
2021/12/20 05:25:06;;;;;;;12.10;5.60;;;0.60;99.90;;;1.18;100.00;-19767.00;5052801;28;20253;-63
2021/12/20 05:27:34;;;;;;;8.47;3.80;;;0.60;99.90;;;1.08;100.00;-19763.59;5052648;28;20689;-63
2021/12/20 05:30:03;;;;;;;9.90;5.83;;;0.60;99.90;;;1.01;100.00;-19761.19;5052901;28;20284;-64
2021/12/20 05:32:33;;;;;;;7.80;3.80;;;0.60;99.90;;;0.95;100.00;-19759.31;5052823;28;20244;-64
2021/12/20 05:35:01;;;;;;;8.93;3.27;;;0.50;99.90;;;1.23;100.00;-19768.88;5052415;28;20198;-62
2021/12/20 05:37:29;;;;;;;7.07;3.17;;;0.50;99.90;;;1.26;100.00;-19769.75;5052577;28;20197;-66
2021/12/20 05:39:57;;;;;;;5.37;2.73;;;0.60;99.90;;;1.20;100.00;-19767.69;5052332;28;20296;-63
2021/12/20 05:42:25;;;;;;;7.00;2.53;;;0.60;99.90;;;1.12;100.00;-19764.94;5052199;28;20197;-63
2021/12/20 05:44:54;;;;;;;4.60;2.60;;;0.60;99.90;;;0.96;100.00;-19759.66;5035219;28;20325;-63
2021/12/20 05:47:23;;;;;;;6.77;3.20;;;0.50;99.90;;;0.86;100.00;-19756.06;5032580;28;20259;-63
2021/12/20 05:49:53;;;;;;;6.70;3.07;;;0.50;99.90;;;0.83;100.00;-19755.03;5032254;28;20650;-61
2021/12/20 05:52:21;;;;;;;7.33;2.60;;;0.40;99.90;;;0.85;100.00;-19755.72;5032850;28;20225;-63
2021/12/20 05:54:49;;;;;;;6.30;2.37;;;0.40;99.90;;;1.08;100.00;-19763.59;5032282;28;20280;-62
2021/12/20 05:57:17;;;;;;;8.37;3.80;;;0.50;99.90;;;1.03;100.00;-19761.88;5032190;28;20297;-62
2021/12/20 05:59:45;;;;;;;9.37;4.83;;;0.50;99.90;;;1.06;100.00;-19763.06;5032137;28;20630;-64
2021/12/20 06:02:13;;;;;;;8.53;3.97;;;0.50;99.90;;;0.96;100.00;-19759.47;5032037;28;20265;-63
2021/12/20 06:04:41;;;;;;;7.50;3.20;;;0.40;99.90;;;0.87;100.00;-19756.56;5032345;28;20233;-63
2021/12/20 06:07:11;;;;;;;7.83;2.60;;;0.50;99.90;;;0.92;100.00;-19758.13;5029059;28;20214;-63
2021/12/20 06:09:39;;;;;;;9.20;2.67;;;0.40;99.90;;;0.84;100.00;-19755.56;5031586;28;20588;-63
2021/12/20 06:12:09;;;;;;;6.00;2.40;;;0.40;99.90;;;0.82;100.00;-19754.69;5032275;28;20202;-64
2021/12/20 06:14:36;;;;;;;6.73;2.60;;;0.30;99.90;;;0.98;100.00;-19760.16;5032030;28;20203;-63
2021/12/20 06:17:05;;;;;;;8.47;2.40;;;0.40;99.90;;;0.88;100.00;-19756.91;5032114;28;20285;-62
2021/12/20 06:19:33;;;;;;;8.30;2.80;;;0.30;99.90;;;0.82;100.00;-19754.69;5031946;28;20210;-63
2021/12/20 06:22:01;;;;;;;6.40;2.43;;;0.30;99.90;;;0.79;100.00;-19753.84;5031993;28;20699;-62
2021/12/20 06:24:31;;;;;;;5.63;2.10;;;0.30;99.90;;;0.97;100.00;-19759.81;5031869;28;20264;-63
2021/12/20 06:26:59;;;;;;;8.20;2.33;;;0.30;99.90;;;0.91;100.00;-19757.78;5031882;28;20226;-63
2021/12/20 06:29:28;;;;;;;9.67;2.77;;;0.30;99.90;;;0.87;100.00;-19756.56;5031982;28;20198;-63
2021/12/20 06:31:56;;;;;;;9.50;1.83;;;0.30;99.90;;;0.87;100.00;-19756.41;5031712;28;20866;-63
2021/12/20 06:34:24;;;;;;;9.07;3.07;;;0.40;99.90;;;0.79;100.00;-19753.84;5031919;28;20281;-62
2021/12/20 06:36:52;;;;;;;7.80;2.20;;;0.30;99.90;;;0.92;100.00;-19758.28;5031654;28;20234;-62
2021/12/20 06:39:20;;;;;;;5.53;2.50;;;0.30;99.90;;;0.81;100.00;-19754.34;5031131;28;20206;-64
2021/12/20 06:41:50;;;;;;;6.80;2.40;;;0.30;99.90;;;0.72;100.00;-19751.44;5031242;28;20296;-63
2021/12/20 06:44:18;;;;;;;6.67;3.03;;;0.30;99.90;;;0.73;100.00;-19751.63;5031306;28;20738;-62
2021/12/20 06:46:46;;;;;;;6.67;2.40;;;0.20;99.90;;;0.65;100.00;-19748.88;5030970;28;20655;-62
2021/12/20 06:49:14;;;;;;;8.97;2.20;;;0.20;99.90;;;0.70;100.00;-19750.75;5032565;28;20316;-62
2021/12/20 06:51:44;;;;;;;5.53;2.37;;;0.20;99.90;;;0.76;100.00;-19752.81;5035109;28;20278;-62
2021/12/20 06:54:15;;;;;;;7.93;2.60;;;0.30;99.90;;;0.92;100.00;-19758.28;5034989;28;20577;-62
2021/12/20 06:56:43;;;;;;;11.10;2.70;;;0.20;99.90;;;0.83;100.00;-19755.03;5035256;28;20273;-62
2021/12/20 06:59:13;;;;;;;8.97;2.57;;;0.30;99.90;;;0.84;100.00;-19755.38;5035339;28;20295;-62
2021/12/20 07:01:43;;;;;;;6.53;2.53;;;0.20;99.90;;;0.74;100.00;-19751.97;5033845;28;20209;-64
2021/12/20 07:04:12;;;;;;;7.17;2.70;;;0.20;99.90;;;0.84;100.00;-19755.38;5032594;28;20752;-62
2021/12/20 07:06:40;;;;;;;10.00;2.80;;;0.30;99.90;;;0.95;100.00;-19759.13;5034716;28;20801;-63
2021/12/20 07:09:09;;;;;;;4.87;2.20;;;0.30;99.90;;;0.74;100.00;-19752.13;5034327;28;20241;-64
2021/12/20 07:11:40;;;;;;;10.23;2.40;;;0.20;99.90;;;0.83;100.00;-19755.19;5035182;28;20202;-62
2021/12/20 07:14:09;;;;;;;7.13;2.23;;;0.30;99.90;;;0.94;100.00;-19758.97;5035104;28;20608;-62
2021/12/20 07:16:40;;;;;;;13.33;3.07;;;0.30;99.90;;;0.96;100.00;-19759.66;5034267;28;20297;-63
2021/12/20 07:19:10;;;;;;;8.63;2.77;;;0.30;99.90;;;0.89;100.00;-19757.09;5034752;28;20224;-63
2021/12/20 07:21:38;;;;;;;5.40;2.20;;;0.30;99.90;;;0.79;100.00;-19753.84;5034932;28;20689;-63
2021/12/20 07:24:07;;;;;;;9.37;2.70;;;0.30;99.90;;;0.79;100.00;-19753.66;5034948;28;20262;-63
2021/12/20 07:26:35;;;;;;;5.63;2.23;;;0.20;99.90;;;0.80;100.00;-19754.00;5034783;28;20579;-64
2021/12/20 07:29:04;;;;;;;6.87;2.43;;;0.20;99.90;;;0.85;100.00;-19755.72;5034916;28;20201;-63
2021/12/20 07:31:32;;;;;;;7.93;3.13;;;0.20;99.90;;;0.83;100.00;-19755.03;5034245;28;20212;-64
2021/12/20 07:34:02;;;;;;;13.07;2.87;;;0.20;99.90;;;0.84;100.00;-19755.56;5034659;28;20245;-63
2021/12/20 07:36:31;;;;;;;6.50;2.37;;;0.30;99.90;;;0.81;100.00;-19754.34;5034814;28;20210;-63
2021/12/20 07:39:00;;;;;;;8.20;3.07;;;0.30;99.90;;;0.80;100.00;-19754.19;5032924;28;20290;-62
2021/12/20 07:41:48;;;;;;;11.13;2.70;;;0.30;99.90;;;0.97;100.00;-19760.00;5025191;28;20206;-62
2021/12/20 07:44:17;;;;;;;6.07;2.73;;;0.30;99.90;;;0.88;100.00;-19756.91;5037371;28;20274;-62
2021/12/20 07:46:45;;;;;;;11.17;2.73;;;0.30;99.90;;;0.92;100.00;-19758.28;5037633;28;20249;-63
2021/12/20 07:49:15;;;;;;;11.63;2.63;;;0.40;99.90;;;0.92;100.00;-19758.13;5037523;28;20225;-62
2021/12/20 07:51:43;;;;;;;6.90;2.50;;;0.40;99.90;;;1.12;100.00;-19765.13;5046265;28;20260;-63
2021/12/20 07:54:11;;;;;;;7.33;2.37;;;0.50;99.90;;;1.03;100.00;-19762.03;5034079;28;20564;-62
2021/12/20 07:56:39;;;;;;;7.17;2.60;;;0.50;99.90;;;1.20;100.00;-19767.84;5034125;28;20222;-62
2021/12/20 07:59:07;;;;;;;6.27;2.40;;;0.50;99.90;;;1.17;100.00;-19766.84;5035069;28;20264;-62
2021/12/20 08:01:35;;;;;;;7.00;2.93;;;0.60;99.90;;;1.14;100.00;-19765.81;5033160;28;20543;-64
2021/12/20 08:04:06;;;;;;;6.03;2.70;;;0.60;99.90;;;1.20;100.00;-19767.84;5028602;28;20305;-63
2021/12/20 08:06:36;;;;;;;7.93;3.13;;;0.60;99.90;;;1.29;100.00;-19770.75;5031663;28;20206;-63
2021/12/20 08:09:05;;;;;;;8.93;3.40;;;0.70;99.90;;;1.30;100.00;-19770.94;5037724;28;20384;-62
2021/12/20 08:11:35;;;;;;;6.10;3.00;;;0.70;99.90;;;1.34;100.00;-19772.47;5050937;28;20197;-64
2021/12/20 08:14:04;;;;;;;8.07;2.50;;;0.70;99.90;;;1.38;100.00;-19773.66;5048093;28;20551;-63
2021/12/20 08:16:32;;;;;;;5.10;2.67;;;0.80;99.90;;;1.40;100.00;-19774.34;5039964;28;20195;-64
2021/12/20 08:19:01;;;;;;;7.73;3.00;;;0.80;99.90;;;1.49;100.00;-19777.59;5034076;28;20284;-62
2021/12/20 08:21:29;;;;;;;6.30;2.60;;;0.90;99.90;;;1.63;100.00;-19782.38;5034719;28;20854;-62
2021/12/20 08:23:58;;;;;;;8.20;3.00;;;1.00;99.90;;;1.59;100.00;-19780.84;5033788;28;20628;-63
2021/12/20 08:26:27;;;;;;;7.33;2.50;;;1.00;99.90;;;1.78;100.00;-19787.34;5035043;28;20206;-64
2021/12/20 08:28:58;;;;;;;7.40;2.90;;;1.00;99.90;;;1.75;100.00;-19786.31;5046084;28;20197;-63
2021/12/20 08:31:26;;;;;;;8.43;2.63;;;1.10;99.90;;;1.85;100.00;-19789.75;5044473;28;20289;-64
2021/12/20 08:33:54;;;;;;;10.87;3.10;;;1.20;99.90;;;1.89;100.00;-19791.28;5034626;28;20241;-64
2021/12/20 08:36:22;;;;;;;9.70;2.30;;;1.30;99.90;;;1.95;100.00;-19793.34;5033188;28;20241;-64
2021/12/20 08:38:50;;;;;;;4.73;2.10;;;1.30;99.90;;;1.95;100.00;-19793.16;5033369;28;20194;-64
2021/12/20 08:41:20;;;;;;;9.67;2.90;;;1.40;99.90;;;2.09;100.00;-19797.94;5033112;28;20240;-62
2021/12/20 08:43:48;;;;;;;6.80;2.47;;;1.50;99.90;;;2.09;100.00;-19797.94;5033232;28;20327;-63
2021/12/20 08:46:18;;;;;;;7.17;2.30;;;1.50;99.90;;;2.16;100.00;-19800.34;5032835;28;20241;-64
2021/12/20 08:48:48;;;;;;;7.60;3.20;;;1.50;99.90;;;2.37;100.00;-19807.69;5032545;28;20706;-63
2021/12/20 08:51:16;;;;;;;6.73;2.30;;;1.60;99.90;;;2.60;100.00;-19815.22;5032842;28;20662;-64
2021/12/20 08:53:45;;;;;;;7.70;2.70;;;1.70;99.90;;;2.61;100.00;-19815.56;5032989;28;20277;-63
2021/12/20 08:56:13;;;;;;;6.23;2.67;;;1.80;99.90;;;2.76;100.00;-19820.84;5032426;28;20213;-63
2021/12/20 08:58:42;;;;;;;5.90;2.33;;;1.90;99.90;;;2.71;100.00;-19818.97;5033374;28;20277;-63
2021/12/20 09:01:10;;;;;;;4.37;2.33;;;2.00;99.90;;;2.75;100.00;-19820.34;5031878;28;20237;-63
2021/12/20 09:03:38;;;;;;;5.53;2.70;;;2.10;99.90;;;2.68;100.00;-19818.13;5032660;28;20247;-63
2021/12/20 09:06:08;;;;;;;6.23;2.27;;;2.00;99.90;;;2.92;100.00;-19826.31;5036872;28;20304;-64
2021/12/20 09:08:36;;;;;;;6.90;2.33;;;2.10;99.90;;;2.95;100.00;-19827.19;5032102;28;20195;-64
2021/12/20 09:11:04;;;;;;;8.27;2.70;;;2.20;99.90;;;2.80;100.00;-19822.22;5031958;28;20225;-63
2021/12/20 09:13:32;;;;;;;6.03;2.50;;;2.20;99.90;;;2.88;100.00;-19824.97;5031710;28;20689;-63
2021/12/20 09:16:01;;;;;;;6.50;2.43;;;2.30;99.90;;;2.91;100.00;-19825.97;5031215;28;20964;-63
2021/12/20 09:18:30;;;;;;;4.67;2.03;;;2.30;99.90;;;3.05;100.00;-19830.78;5032186;28;20213;-63
2021/12/20 09:20:59;;;;;;;6.00;2.60;;;2.40;99.90;;;3.22;100.00;-19836.41;5031761;28;20206;-63
2021/12/20 09:23:29;;;;;;;7.13;2.10;;;2.50;99.90;;;3.32;100.00;-19839.81;5031881;28;20207;-62
2021/12/20 09:25:58;;;;;;;7.23;2.53;;;2.60;99.90;;;3.40;100.00;-19842.72;5032485;28;20215;-63
2021/12/20 09:28:26;;;;;;;8.40;2.53;;;2.60;99.90;;;3.57;100.00;-19848.53;5031836;28;20618;-63
2021/12/20 09:30:54;;;;;;;7.07;2.40;;;2.70;99.90;;;3.61;100.00;-19849.75;5032256;28;20202;-63
2021/12/20 09:33:24;;;;;;;5.97;2.90;;;2.80;99.90;;;3.66;100.00;-19851.63;5031883;28;20203;-63
2021/12/20 09:35:53;;;;;;;6.63;2.33;;;2.90;99.90;;;3.71;100.00;-19853.34;5031577;28;20289;-63
2021/12/20 09:38:22;;;;;;;4.70;2.17;;;2.90;99.90;;;3.62;100.00;-19850.09;5032345;28;20284;-63
2021/12/20 09:41:14;;;;;;;7.30;2.23;;;2.90;99.90;;;3.63;100.00;-19850.44;5031084;28;20303;-63
2021/12/20 09:43:46;;;;;;;8.53;2.27;;;2.90;99.90;;;3.79;100.00;-19855.72;5031288;28;20219;-63
2021/12/20 09:46:18;;;;;;;6.93;2.50;;;3.00;99.90;;;3.75;100.00;-19854.53;5031417;28;20298;-63
2021/12/20 09:48:50;;;;;;;4.77;2.40;;;3.00;99.90;;;3.97;100.00;-19861.88;5032127;28;20196;-63
2021/12/20 09:51:18;;;;;;;5.07;2.50;;;3.10;99.90;;;3.95;100.00;-19861.19;5031804;28;20244;-64
2021/12/20 09:53:47;;;;;;;10.00;2.17;;;3.10;99.90;;;4.03;100.00;-19864.09;5032058;28;20236;-64
2021/12/20 09:56:18;;;;;;;4.87;2.50;;;3.20;99.90;;;3.97;100.00;-19861.88;5032468;28;20243;-63
2021/12/20 09:58:50;;;;;;;5.40;2.40;;;3.20;99.90;;;3.99;100.00;-19862.56;5031923;28;20185;-63
2021/12/20 10:01:22;;;;;;;6.00;2.53;;;3.20;99.90;;;4.02;100.00;-19863.59;5032084;28;20597;-63
2021/12/20 10:03:53;;;;;;;7.57;2.53;;;3.30;99.90;;;3.99;100.00;-19862.72;5050480;28;20601;-63
2021/12/20 10:06:23;;;;;;;5.77;2.83;;;3.40;99.90;;;4.20;100.00;-19869.91;5038719;28;20219;-63
2021/12/20 10:08:53;;;;;;;7.20;2.80;;;3.40;99.90;;;4.28;100.00;-19872.66;5032302;28;20226;-62
2021/12/20 10:11:24;;;;;;;4.83;2.30;;;3.50;99.90;;;4.28;100.00;-19872.66;5031920;28;20763;-63
2021/12/20 10:14:05;;;;;;;6.87;2.70;;;3.60;99.90;;;4.29;100.00;-19872.81;5032262;28;20227;-63
2021/12/20 10:16:36;;;;;;;4.00;1.87;;;3.60;99.90;;;4.34;100.00;-19874.53;5031783;28;20604;-63
2021/12/20 10:19:26;;;;;;;5.10;2.23;;;3.60;99.90;;;4.54;100.00;-19881.53;5032108;28;20215;-64
2021/12/20 10:21:55;;;;;;;7.03;2.20;;;3.80;99.90;;;4.50;100.00;-19880.16;5032003;28;20288;-63
2021/12/20 10:24:31;;;;;;;4.53;2.00;;;3.80;99.90;;;4.44;100.00;-19878.13;5033561;28;20331;-63
2021/12/20 10:26:59;;;;;;;6.30;2.33;;;3.80;99.90;;;4.54;100.00;-19881.53;5035919;28;20304;-65
2021/12/20 10:29:27;;;;;;;5.87;2.30;;;3.80;99.90;;;4.48;100.00;-19879.31;5036063;28;20629;-63
2021/12/20 10:31:56;;;;;;;8.47;2.67;;;3.80;99.90;;;4.55;100.00;-19881.72;5035865;28;20213;-63
2021/12/20 10:34:35;;;;;;;8.23;2.43;;;3.90;99.90;;;4.83;100.00;-19891.28;5035869;28;20223;-63
2021/12/20 10:37:05;;;;;;;4.60;2.60;;;3.90;99.90;;;4.75;100.00;-19888.72;5036054;28;20296;-64
2021/12/20 10:39:37;;;;;;;6.70;2.03;;;3.90;99.90;;;4.74;100.00;-19888.19;5035858;28;20221;-64